Main page
METAR-TAF:

METAR-TAF

Airports :

Clinton Regional Airport

Clinton, Oklahoma, United States

latitude: 35-32-17N, longitude: 098-55-17W, elevation: 1614 ft

Current weather observation

The report was made 15 minutes ago, at 16:55 UTC
Wind 18 mph from the South with gusts up to 23 mph
Temperature 88°F
Humidity 40%
Pressure 29.94 in. Hg
Visibility: 10 miles
Clear sky

METAR: KCLK 151655Z AUTO 19016G20KT 10SM CLR 31/16 A2994 RMK AO2

Time: 12:10 (17:10 UTC)


TAF: missing

Weather observations and forecasts of more than 4000 airports (METAR and TAF reports).

The available stations are represented by yellow and red dots on the map.

Hover mouse over dot to see the name of the station.

Then click to see weather observations and forecasts.

To change the map : click on the green buttons with a black cross to zoom in, on the green button with a dash to zoom out, or on the green arrows for adjacent maps.


METAR-TAF: